createdAt,value
2018-03-12T00:00:42.980Z,11.28
2018-03-12T00:03:11.773Z,11.21
2018-03-12T00:05:41.933Z,11.12
2018-03-12T00:08:11.965Z,11.08
2018-03-12T00:10:41.374Z,11.08
2018-03-12T00:13:10.822Z,11.10
2018-03-12T00:15:39.457Z,11.07
2018-03-12T00:18:07.984Z,11.04
2018-03-12T00:20:36.492Z,11.04
2018-03-12T00:23:05.181Z,11.05
2018-03-12T00:25:33.712Z,11.05
2018-03-12T00:28:02.295Z,11.13
2018-03-12T00:30:31.368Z,11.13
2018-03-12T00:32:59.805Z,11.09
2018-03-12T00:35:28.280Z,11.05
2018-03-12T00:37:56.752Z,11.10
2018-03-12T00:40:25.214Z,11.08
2018-03-12T00:42:53.720Z,11.13
2018-03-12T00:45:22.183Z,11.14
2018-03-12T00:47:50.818Z,11.14
2018-03-12T00:50:19.552Z,11.14
2018-03-12T00:52:48.029Z,11.10
2018-03-12T00:55:16.678Z,11.04
2018-03-12T00:57:45.746Z,10.97
2018-03-12T01:00:14.353Z,10.91
2018-03-12T01:02:42.831Z,10.92
2018-03-12T01:05:11.547Z,10.90
2018-03-12T01:07:40.213Z,10.91
2018-03-12T01:10:08.802Z,11.03
2018-03-12T01:12:37.824Z,11.09
2018-03-12T01:15:06.409Z,11.13
2018-03-12T01:17:34.852Z,11.19
2018-03-12T01:20:04.150Z,11.12
2018-03-12T01:22:32.608Z,11.11
2018-03-12T01:25:01.078Z,11.11
2018-03-12T01:27:30.348Z,11.11
2018-03-12T01:29:58.798Z,11.09
2018-03-12T01:32:27.247Z,11.04
2018-03-12T01:34:55.780Z,11.00
2018-03-12T01:37:24.526Z,11.00
2018-03-12T01:39:54.225Z,10.98
2018-03-12T01:42:23.231Z,10.91
2018-03-12T01:44:51.847Z,10.88
2018-03-12T01:47:20.428Z,10.73
2018-03-12T01:49:50.399Z,10.59
2018-03-12T01:52:18.842Z,10.63
2018-03-12T01:54:47.538Z,10.66
2018-03-12T01:57:16.477Z,10.67
2018-03-12T01:59:44.954Z,10.64
2018-03-12T02:02:13.465Z,10.67
2018-03-12T02:07:09.611Z,10.66
2018-03-12T02:09:38.239Z,10.64
2018-03-12T02:12:06.773Z,10.64
2018-03-12T02:14:35.239Z,10.62
2018-03-12T02:17:03.682Z,10.59
2018-03-12T02:19:32.594Z,10.50
2018-03-12T02:22:01.050Z,10.53
2018-03-12T02:24:29.494Z,10.49
2018-03-12T02:26:58.005Z,10.49
2018-03-12T02:29:26.496Z,10.48
2018-03-12T02:31:55.071Z,10.48
2018-03-12T02:34:23.949Z,10.49
2018-03-12T02:36:52.433Z,10.56
2018-03-12T02:39:20.944Z,10.54
2018-03-12T02:41:49.567Z,10.53
2018-03-12T02:44:18.131Z,10.53
2018-03-12T02:46:46.719Z,10.51
2018-03-12T02:49:15.654Z,10.53
2018-03-12T02:51:44.136Z,10.49
2018-03-12T02:54:12.688Z,10.29
2018-03-12T02:56:41.275Z,10.20
2018-03-12T02:59:09.709Z,10.33
2018-03-12T03:01:38.227Z,10.39
2018-03-12T03:04:07.201Z,10.44
2018-03-12T03:06:35.740Z,10.44
2018-03-12T03:09:04.232Z,10.45
2018-03-12T03:11:32.997Z,10.33
2018-03-12T03:14:01.487Z,10.21
2018-03-12T03:16:41.689Z,10.15
2018-03-12T03:19:10.137Z,10.13
2018-03-12T03:21:38.636Z,10.10
2018-03-12T03:24:07.381Z,10.10
2018-03-12T03:26:35.864Z,10.08
2018-03-12T03:29:04.344Z,10.07
2018-03-12T03:31:32.881Z,10.03
2018-03-12T03:34:01.403Z,10.02
2018-03-12T03:36:29.940Z,10.02
2018-03-12T03:38:59.284Z,10.01
2018-03-12T03:41:27.753Z,10.04
2018-03-12T03:43:56.310Z,10.06
2018-03-12T03:46:25.656Z,10.08
2018-03-12T03:48:54.133Z,10.06
2018-03-12T03:51:22.619Z,10.07
2018-03-12T03:53:54.037Z,10.07
2018-03-12T03:56:22.574Z,9.99
2018-03-12T03:58:51.055Z,9.94
2018-03-12T04:01:20.726Z,9.93
2018-03-12T04:03:49.171Z,9.91
2018-03-12T04:06:17.605Z,9.81
2018-03-12T04:08:46.570Z,9.85
2018-03-12T04:11:15.003Z,9.88
2018-03-12T04:13:43.564Z,9.87
2018-03-12T04:16:12.759Z,9.84
2018-03-12T04:18:41.184Z,9.86
2018-03-12T04:21:09.688Z,9.81
2018-03-12T04:23:38.313Z,9.76
2018-03-12T04:26:06.793Z,9.79
2018-03-12T04:28:35.239Z,9.83
2018-03-12T04:31:04.079Z,9.88
2018-03-12T04:33:32.955Z,9.91
2018-03-12T04:36:01.507Z,9.73
2018-03-12T04:38:30.053Z,9.56
2018-03-12T04:40:58.754Z,9.42
2018-03-12T04:43:28.045Z,9.40
2018-03-12T04:45:56.614Z,9.38
2018-03-12T04:48:25.128Z,9.28
2018-03-12T04:50:53.674Z,9.11
2018-03-12T04:53:22.170Z,9.01
2018-03-12T04:55:50.663Z,9.04
2018-03-12T04:58:19.139Z,9.09
2018-03-12T05:00:47.928Z,9.07
2018-03-12T05:03:16.417Z,9.01
2018-03-12T05:05:44.998Z,8.93
2018-03-12T05:08:13.623Z,8.86
2018-03-12T05:10:42.165Z,8.76
2018-03-12T05:13:10.623Z,8.68
2018-03-12T05:15:39.098Z,8.57
2018-03-12T05:18:07.608Z,8.53
2018-03-12T05:20:36.051Z,8.52
2018-03-12T05:23:04.577Z,8.49
2018-03-12T05:25:33.872Z,8.33
2018-03-12T05:28:02.393Z,8.42
2018-03-12T05:30:32.031Z,8.46
2018-03-12T05:33:00.562Z,8.47
2018-03-12T05:35:29.071Z,8.37
2018-03-12T05:37:58.134Z,8.06
2018-03-12T05:40:28.687Z,7.99
2018-03-12T05:42:57.200Z,8.07
2018-03-12T05:45:26.256Z,8.21
2018-03-12T05:47:54.789Z,8.42
2018-03-12T05:50:23.301Z,8.43
2018-03-12T05:52:51.767Z,8.37
2018-03-12T05:55:20.237Z,8.33
2018-03-12T05:57:49.717Z,8.43
2018-03-12T06:00:18.305Z,8.40
2018-03-12T06:02:46.783Z,8.42
2018-03-12T06:05:15.274Z,8.47
2018-03-12T06:07:44.367Z,8.49
2018-03-12T06:10:12.868Z,8.49
2018-03-12T06:12:41.544Z,8.43
2018-03-12T06:15:10.172Z,8.40
2018-03-12T06:17:38.737Z,8.45
2018-03-12T06:20:07.289Z,8.63
2018-03-12T06:22:36.179Z,8.75
2018-03-12T06:25:04.663Z,8.77
2018-03-12T06:27:33.244Z,8.80
2018-03-12T06:30:01.751Z,8.72
2018-03-12T06:32:30.206Z,8.72
2018-03-12T06:34:58.702Z,8.77
2018-03-12T06:37:27.528Z,8.81
2018-03-12T06:39:55.982Z,8.71
2018-03-12T06:42:24.637Z,8.69
2018-03-12T06:44:53.181Z,8.73
2018-03-12T06:47:21.781Z,8.86
2018-03-12T06:49:50.389Z,8.92
2018-03-12T06:52:19.905Z,8.93
2018-03-12T06:54:48.581Z,8.94
2018-03-12T06:57:17.271Z,9.07
2018-03-12T06:59:45.854Z,9.12
2018-03-12T07:02:14.539Z,9.15
2018-03-12T07:04:43.430Z,9.24
2018-03-12T07:07:12.468Z,9.37
2018-03-12T07:09:41.106Z,9.35
2018-03-12T07:12:09.792Z,9.55
2018-03-12T07:14:38.606Z,9.59
2018-03-12T07:17:07.103Z,9.66
2018-03-12T07:19:35.697Z,9.65
2018-03-12T07:22:04.796Z,9.67
2018-03-12T07:24:33.522Z,9.66
2018-03-12T07:27:02.110Z,9.71
2018-03-12T07:29:30.695Z,9.73
2018-03-12T07:31:59.285Z,9.74
2018-03-12T07:34:27.811Z,9.74
2018-03-12T07:36:57.035Z,9.74
2018-03-12T07:39:25.548Z,9.74
2018-03-12T07:41:53.997Z,9.69
2018-03-12T07:44:23.222Z,9.72
2018-03-12T07:46:51.677Z,9.74
2018-03-12T07:49:20.181Z,9.88
2018-03-12T07:51:48.764Z,9.96
2018-03-12T07:54:17.350Z,10.08
2018-03-12T07:56:45.935Z,10.20
2018-03-12T07:59:16.053Z,10.30
2018-03-12T08:01:44.740Z,10.37
2018-03-12T08:04:13.338Z,10.49
2018-03-12T08:06:42.025Z,10.64
2018-03-12T08:09:10.539Z,10.92
2018-03-12T08:11:38.970Z,11.08
2018-03-12T08:14:08.522Z,11.27
2018-03-12T08:16:36.977Z,11.43
2018-03-12T08:19:05.462Z,11.62
2018-03-12T08:21:34.776Z,11.83
2018-03-12T08:24:03.304Z,12.01
2018-03-12T08:26:31.779Z,12.17
2018-03-12T08:29:00.438Z,12.22
2018-03-12T08:31:28.943Z,12.28
2018-03-12T08:33:57.434Z,11.94
2018-03-12T08:36:25.966Z,12.02
2018-03-12T08:38:54.388Z,12.40
2018-03-12T08:41:22.999Z,12.60
2018-03-12T08:43:51.482Z,12.77
2018-03-12T08:46:20.064Z,12.51
2018-03-12T08:48:48.554Z,12.36
2018-03-12T08:51:17.081Z,12.20
2018-03-12T08:53:45.616Z,11.96
2018-03-12T08:56:14.194Z,11.92
2018-03-12T08:58:42.978Z,12.19
2018-03-12T09:01:11.628Z,12.20
2018-03-12T09:03:40.061Z,12.14
2018-03-12T09:06:08.666Z,12.42
2018-03-12T09:08:37.106Z,12.46
2018-03-12T09:11:05.566Z,12.60
2018-03-12T09:13:35.136Z,12.85
2018-03-12T09:16:03.685Z,12.86
2018-03-12T09:18:32.283Z,12.72
2018-03-12T09:21:01.006Z,12.59
2018-03-12T09:23:29.402Z,12.40
2018-03-12T09:25:57.911Z,12.21
2018-03-12T09:28:26.392Z,11.89
2018-03-12T09:30:55.804Z,11.68
2018-03-12T09:33:24.223Z,11.31
2018-03-12T09:35:53.293Z,11.12
2018-03-12T09:38:21.905Z,11.51
2018-03-12T09:40:50.341Z,11.75
2018-03-12T09:43:18.921Z,11.94
2018-03-12T09:45:47.509Z,12.04
2018-03-12T09:48:16.159Z,11.93
2018-03-12T09:50:44.710Z,11.86
2018-03-12T09:53:13.307Z,11.90
2018-03-12T09:55:41.878Z,11.80
2018-03-12T09:58:10.769Z,11.93
2018-03-12T10:00:39.317Z,11.75
2018-03-12T10:03:07.816Z,11.70
2018-03-12T10:05:36.390Z,11.82
2018-03-12T10:08:04.879Z,11.91
2018-03-12T10:10:33.358Z,11.77
2018-03-12T10:13:01.925Z,10.99
2018-03-12T10:15:30.417Z,10.61
2018-03-12T10:17:58.895Z,10.29
2018-03-12T10:20:27.478Z,10.10
2018-03-12T10:22:55.959Z,9.81
2018-03-12T10:25:24.399Z,9.50
2018-03-12T10:27:53.331Z,9.20
2018-03-12T10:30:21.820Z,8.91
2018-03-12T10:32:50.414Z,8.73
2018-03-12T10:35:19.118Z,8.68
2018-03-12T10:37:47.582Z,8.71
2018-03-12T10:40:16.146Z,8.68
2018-03-12T10:42:45.341Z,8.70
2018-03-12T10:45:13.860Z,9.00
2018-03-12T10:47:42.734Z,9.16
2018-03-12T10:50:12.214Z,9.35
2018-03-12T10:52:40.718Z,9.37
2018-03-12T10:55:09.276Z,9.39
2018-03-12T10:57:37.860Z,9.43
2018-03-12T11:00:06.444Z,9.52
2018-03-12T11:02:34.940Z,9.44
2018-03-12T11:05:04.422Z,9.45
2018-03-12T11:07:33.009Z,9.45
2018-03-12T11:10:01.441Z,9.36
2018-03-12T11:12:30.387Z,9.40
2018-03-12T11:14:58.905Z,9.48
2018-03-12T11:17:27.340Z,9.46
2018-03-12T11:19:57.546Z,9.25
2018-03-12T11:22:26.013Z,9.20
2018-03-12T11:24:54.600Z,9.06
2018-03-12T11:27:23.572Z,8.87
2018-03-12T11:29:52.032Z,8.85
2018-03-12T11:32:20.624Z,8.99
2018-03-12T11:34:49.716Z,9.02
2018-03-12T11:37:18.365Z,8.84
2018-03-12T11:39:46.924Z,8.71
2018-03-12T11:42:15.690Z,8.52
2018-03-12T11:44:44.162Z,8.47
2018-03-12T11:47:12.704Z,8.41
2018-03-12T11:49:41.838Z,8.61
2018-03-12T11:52:10.550Z,8.79
2018-03-12T11:54:39.144Z,8.95
2018-03-12T11:57:07.626Z,9.06
2018-03-12T11:59:36.093Z,9.31
2018-03-12T12:02:04.673Z,9.53
2018-03-12T12:04:33.295Z,9.45
2018-03-12T12:07:01.770Z,9.58
2018-03-12T12:09:30.789Z,9.76
2018-03-12T12:11:59.254Z,9.82
2018-03-12T12:14:27.716Z,9.46
2018-03-12T12:16:56.272Z,9.22
2018-03-12T12:19:25.935Z,9.52
2018-03-12T12:21:54.380Z,9.68
2018-03-12T12:24:22.837Z,9.56
2018-03-12T12:26:51.442Z,9.38
2018-03-12T12:29:19.948Z,9.66
2018-03-12T12:31:48.430Z,9.57
2018-03-12T12:34:17.399Z,9.36
2018-03-12T12:36:45.873Z,9.17
2018-03-12T12:39:14.428Z,9.10
2018-03-12T12:41:43.041Z,9.11
2018-03-12T12:44:11.530Z,9.02
2018-03-12T12:46:40.033Z,9.05
2018-03-12T12:49:09.738Z,8.83
2018-03-12T12:51:38.226Z,9.01
2018-03-12T12:54:07.422Z,9.02
2018-03-12T12:56:37.619Z,9.00
2018-03-12T12:59:06.235Z,9.06
2018-03-12T13:01:34.779Z,9.05
2018-03-12T13:04:03.367Z,9.07
2018-03-12T13:06:31.819Z,9.12
2018-03-12T13:09:00.593Z,9.14
2018-03-12T13:11:29.169Z,9.17
2018-03-12T13:13:57.600Z,9.24
2018-03-12T13:16:26.082Z,9.42
2018-03-12T13:18:54.664Z,9.43
2018-03-12T13:21:23.124Z,9.49
2018-03-12T13:23:51.654Z,9.51
2018-03-12T13:26:20.345Z,9.66
2018-03-12T13:28:48.947Z,9.59
2018-03-12T13:31:17.537Z,9.69
2018-03-12T13:33:46.213Z,9.78
2018-03-12T13:36:14.854Z,9.88
2018-03-12T13:38:43.353Z,9.97
2018-03-12T13:41:12.351Z,9.95
2018-03-12T13:43:41.141Z,10.08
2018-03-12T13:46:09.602Z,10.06
2018-03-12T13:48:38.129Z,9.93
2018-03-12T13:51:06.685Z,10.03
2018-03-12T13:53:35.156Z,9.87
2018-03-12T13:56:03.749Z,9.97
2018-03-12T13:58:32.191Z,9.95
2018-03-12T14:01:00.657Z,9.87
2018-03-12T14:03:29.142Z,9.90
2018-03-12T14:05:57.629Z,9.96
2018-03-12T14:08:26.154Z,9.97
2018-03-12T14:10:54.757Z,10.01
2018-03-12T14:13:23.258Z,9.99
2018-03-12T14:15:51.750Z,10.02
2018-03-12T14:18:20.355Z,10.00
2018-03-12T14:20:49.110Z,10.02
2018-03-12T14:23:17.686Z,10.02
2018-03-12T14:25:46.278Z,10.00
2018-03-12T14:28:14.776Z,9.96
2018-03-12T14:30:43.356Z,9.94
2018-03-12T14:33:12.786Z,9.89
2018-03-12T14:35:41.434Z,9.71
2018-03-12T14:38:09.916Z,9.83
2018-03-12T14:40:39.356Z,9.97
2018-03-12T14:43:07.920Z,10.05
2018-03-12T14:45:36.342Z,9.83
2018-03-12T14:48:04.832Z,9.82
2018-03-12T14:50:33.306Z,9.89
2018-03-12T14:53:01.818Z,9.88
2018-03-12T14:55:30.453Z,9.85
2018-03-12T14:57:58.927Z,9.82
2018-03-12T15:00:27.460Z,9.76
2018-03-12T15:02:56.707Z,9.86
2018-03-12T15:05:25.273Z,9.80
2018-03-12T15:07:53.818Z,9.72
2018-03-12T15:10:23.139Z,9.42
2018-03-12T15:12:51.817Z,9.33
2018-03-12T15:15:20.343Z,9.20
2018-03-12T15:17:49.179Z,9.11
2018-03-12T15:20:17.705Z,9.06
2018-03-12T15:22:46.242Z,9.13
2018-03-12T15:25:16.260Z,9.09
2018-03-12T15:27:44.941Z,9.06
2018-03-12T15:30:13.553Z,9.04
2018-03-12T15:32:43.138Z,9.06
2018-03-12T15:35:12.535Z,9.00
2018-03-12T15:37:42.011Z,9.08
2018-03-12T15:40:11.343Z,9.05
2018-03-12T15:42:39.926Z,9.25
2018-03-12T15:45:08.430Z,9.07
2018-03-12T15:47:37.095Z,8.83
2018-03-12T15:50:07.619Z,8.77
2018-03-12T15:52:36.121Z,8.66
2018-03-12T15:55:04.715Z,8.57
2018-03-12T15:57:33.266Z,8.63
2018-03-12T16:00:01.737Z,8.68
2018-03-12T16:02:30.651Z,8.60
2018-03-12T16:05:00.132Z,8.47
2018-03-12T16:07:28.620Z,8.46
2018-03-12T16:09:57.322Z,8.44
2018-03-12T16:12:25.917Z,8.60
2018-03-12T16:14:54.462Z,8.67
2018-03-12T16:17:23.938Z,8.77
2018-03-12T16:19:52.384Z,8.82
2018-03-12T16:22:20.931Z,8.81
2018-03-12T16:24:49.772Z,8.87
2018-03-12T16:27:18.428Z,8.86
2018-03-12T16:29:47.772Z,8.93
2018-03-12T16:32:16.699Z,8.90
2018-03-12T16:34:45.395Z,9.04
2018-03-12T16:37:15.306Z,9.07
2018-03-12T16:39:46.169Z,9.17
2018-03-12T16:42:15.749Z,9.31
2018-03-12T16:44:44.333Z,9.22
2018-03-12T16:47:14.963Z,9.22
2018-03-12T16:49:43.877Z,9.21
2018-03-12T16:52:12.535Z,9.17
2018-03-12T16:54:41.688Z,9.24
2018-03-12T16:57:10.144Z,9.36
2018-03-12T16:59:38.699Z,9.42
2018-03-12T17:02:07.190Z,9.41
2018-03-12T17:04:35.763Z,9.44
2018-03-12T17:07:04.480Z,9.55
2018-03-12T17:09:33.077Z,9.65
2018-03-12T17:12:01.655Z,9.74
2018-03-12T17:14:30.572Z,9.79
2018-03-12T17:16:59.606Z,9.75
2018-03-12T17:19:28.154Z,9.68
2018-03-12T17:21:56.916Z,9.77
2018-03-12T17:24:27.168Z,9.63
2018-03-12T17:26:56.116Z,9.68
2018-03-12T17:29:24.757Z,9.75
2018-03-12T17:31:54.323Z,9.71
2018-03-12T17:34:28.227Z,9.67
2018-03-12T17:39:48.746Z,9.46
2018-03-12T17:42:18.103Z,9.49
2018-03-12T17:44:47.182Z,9.53
2018-03-12T17:47:15.951Z,9.61
2018-03-12T17:49:45.391Z,9.60
2018-03-12T17:52:13.985Z,9.39
2018-03-12T17:54:42.691Z,9.59
2018-03-12T17:57:11.963Z,9.43
2018-03-12T17:59:40.577Z,9.43
2018-03-12T18:02:09.293Z,9.38
2018-03-12T18:04:37.935Z,9.46
2018-03-12T18:07:06.492Z,9.41
2018-03-12T18:09:36.166Z,9.33
2018-03-12T18:12:09.018Z,9.15
2018-03-12T18:14:41.848Z,9.25
2018-03-12T18:17:17.738Z,9.29
2018-03-12T18:19:51.191Z,9.17
2018-03-12T18:22:23.061Z,9.16
2018-03-12T18:25:01.769Z,9.23
2018-03-12T18:27:36.667Z,9.22
2018-03-12T18:30:12.084Z,9.13
2018-03-12T18:32:43.846Z,9.10
2018-03-12T18:35:28.246Z,9.14
2018-03-12T18:38:01.988Z,8.99
2018-03-12T18:40:32.963Z,9.16
2018-03-12T18:43:05.431Z,9.14
2018-03-12T18:45:37.588Z,8.91
2018-03-12T18:48:22.300Z,8.90
2018-03-12T18:50:59.568Z,8.74
2018-03-12T18:53:28.461Z,8.73
2018-03-12T18:56:00.898Z,8.78
2018-03-12T18:58:36.486Z,8.62
2018-03-12T19:01:11.849Z,8.62
2018-03-12T19:04:03.258Z,8.79
2018-03-12T19:06:46.841Z,8.83
2018-03-12T19:09:19.531Z,8.73
2018-03-12T19:11:48.037Z,8.85
2018-03-12T19:14:16.731Z,8.91
2018-03-12T19:16:55.749Z,9.11
2018-03-12T19:19:29.530Z,9.29
2018-03-12T19:21:59.641Z,9.33
2018-03-12T19:24:28.182Z,9.37
2018-03-12T19:27:22.888Z,9.42
2018-03-12T19:30:03.039Z,9.61
2018-03-12T19:35:20.299Z,9.73
2018-03-12T19:37:59.508Z,9.75
2018-03-12T19:40:37.494Z,9.72
2018-03-12T19:43:18.456Z,9.70
2018-03-12T19:45:47.153Z,9.80
2018-03-12T19:48:21.492Z,9.82
2018-03-12T19:50:53.317Z,9.86
2018-03-12T19:53:23.853Z,9.88
2018-03-12T19:55:58.998Z,9.94
2018-03-12T19:58:29.068Z,9.99
2018-03-12T20:00:57.783Z,10.04
2018-03-12T20:03:26.368Z,10.00
2018-03-12T20:05:55.931Z,9.96
2018-03-12T20:08:24.582Z,9.93
2018-03-12T20:10:53.277Z,9.91
2018-03-12T20:13:23.054Z,9.87
2018-03-12T20:15:51.737Z,9.89
2018-03-12T20:18:21.135Z,9.90
2018-03-12T20:20:51.176Z,9.88
2018-03-12T20:23:20.319Z,9.97
2018-03-12T20:25:50.338Z,9.90
2018-03-12T20:28:19.159Z,10.04
2018-03-12T20:30:48.521Z,10.16
2018-03-12T20:33:18.490Z,10.21
2018-03-12T20:35:48.178Z,10.17
2018-03-12T20:38:20.892Z,10.28
2018-03-12T20:40:50.774Z,10.32
2018-03-12T20:43:20.505Z,10.39
2018-03-12T20:45:49.178Z,10.42
2018-03-12T20:48:18.674Z,10.44
2018-03-12T20:50:47.258Z,10.45
2018-03-12T20:53:16.655Z,10.46
2018-03-12T20:55:45.458Z,10.48
2018-03-12T20:58:14.633Z,10.54
2018-03-12T21:00:43.515Z,10.56
2018-03-12T21:03:12.686Z,10.57
2018-03-12T21:05:42.756Z,10.37
2018-03-12T21:08:12.462Z,10.36
2018-03-12T21:10:41.591Z,10.49
2018-03-12T21:13:10.862Z,10.59
2018-03-12T21:15:39.877Z,10.66
2018-03-12T21:18:09.220Z,10.68
2018-03-12T21:20:37.874Z,10.72
2018-03-12T21:23:06.606Z,10.69
2018-03-12T21:25:35.403Z,10.67
2018-03-12T21:28:04.355Z,10.66
2018-03-12T21:30:33.172Z,10.60
2018-03-12T21:33:02.953Z,10.36
2018-03-12T21:35:31.464Z,10.26
2018-03-12T21:38:00.179Z,10.22
2018-03-12T21:40:29.243Z,10.22
2018-03-12T21:42:57.670Z,10.24
2018-03-12T21:45:26.222Z,10.38
2018-03-12T21:47:54.947Z,10.38
2018-03-12T21:50:23.575Z,10.35
2018-03-12T21:52:52.078Z,10.29
2018-03-12T21:55:21.256Z,10.25
2018-03-12T21:57:50.144Z,10.23
2018-03-12T22:00:18.792Z,10.28
2018-03-12T22:02:48.545Z,10.28
2018-03-12T22:05:17.331Z,10.27
2018-03-12T22:07:46.065Z,10.28
2018-03-12T22:10:15.010Z,10.26
2018-03-12T22:12:44.311Z,10.32
2018-03-12T22:15:12.953Z,10.48
2018-03-12T22:17:43.709Z,10.44
2018-03-12T22:20:12.550Z,10.51
2018-03-12T22:22:41.282Z,10.51
2018-03-12T22:25:09.994Z,10.42
2018-03-12T22:27:38.709Z,10.51
2018-03-12T22:30:07.186Z,10.64
2018-03-12T22:32:35.797Z,10.63
2018-03-12T22:35:04.297Z,10.61
2018-03-12T22:37:32.849Z,10.72
2018-03-12T22:40:01.492Z,10.77
2018-03-12T22:42:30.025Z,10.81
2018-03-12T22:44:58.539Z,10.78
2018-03-12T22:47:27.198Z,10.68
2018-03-12T22:49:56.232Z,10.76
2018-03-12T22:52:24.746Z,10.79
2018-03-12T22:54:53.263Z,10.83
2018-03-12T22:57:21.888Z,10.71
2018-03-12T22:59:50.438Z,10.80
2018-03-12T23:02:19.176Z,10.84
2018-03-12T23:04:47.742Z,10.82
2018-03-12T23:07:16.362Z,10.83
2018-03-12T23:09:45.028Z,10.82
2018-03-12T23:12:13.666Z,10.64
2018-03-12T23:14:42.253Z,10.60
2018-03-12T23:17:12.584Z,10.73
2018-03-12T23:19:42.044Z,10.73
2018-03-12T23:22:14.939Z,10.78
2018-03-12T23:24:43.929Z,10.80
2018-03-12T23:27:12.807Z,10.82
2018-03-12T23:29:41.846Z,10.84
2018-03-12T23:32:11.584Z,10.75
2018-03-12T23:34:40.466Z,10.82
2018-03-12T23:37:11.054Z,10.88
2018-03-12T23:39:39.710Z,10.57
2018-03-12T23:42:08.376Z,10.65
2018-03-12T23:44:37.513Z,10.54
2018-03-12T23:47:06.198Z,10.61
2018-03-12T23:49:34.965Z,10.70
2018-03-12T23:52:04.806Z,10.65
2018-03-12T23:54:40.246Z,10.75
2018-03-12T23:57:08.998Z,10.74
2018-03-12T23:59:37.689Z,10.73
